• Join FlightAware (Why Join?)
  • Login
  • US Flag 
11:46AM EST


 

Airport Tracker/Info


-or-


 

Live Flight TrackerFlight Track Log ✈ DAL268 ✈ 07-May-2013 ✈ KJFK - LLBG / TLV

Flight Track Log - Related Links

Times and Time Zones

All times are in EDT time to prevent confusion due to time zone crossing. See the DAL268 flight status page for this flight to view local times or setup timezone preferences in your user account.

Time Position Orientation Groundspeed Altitude Reporting Facility
EDT Latitude Longitude Course Direction KTS MPH feet Rate Location/Type
11:31PM 40.6510 -73.7560 30° Northeast 170 196 300  Level FlightAware
11:31PM 40.6590 -73.7470 40° Northeast 171 197 700 1,440 Climbing FlightAware
11:31PM 40.6630 -73.7370 62° Northeast 169 194 900 1,440 Climbing FlightAware
11:32PM 40.6650 -73.7210 81° East 177 204 1,300 1,020 Climbing FlightAware
11:32PM 40.6670 -73.6870 86° East 217 250 1,700 840 Climbing FlightAware
11:32PM 40.6680 -73.6590 87° East 230 265 2,000 1,080 Climbing FlightAware
11:33PM 40.6630 -73.6060 97° East 255 293 2,700 1,380 Climbing FlightAware
11:33PM 40.6560 -73.5660 103° East 269 310 3,400 2,040 Climbing FlightAware
11:34PM 40.6480 -73.5180 102° East 272 313 4,600 2,100 Climbing FlightAware
11:34PM 40.6400 -73.4720 103° East 280 322 5,500 1,920 Climbing FlightAware
11:35PM 40.6370 -73.4560 104° East 281 323 5,900 2,220 Climbing FlightAware
11:35PM 40.6270 -73.4050 104° East 285 328 7,000 1,980 Climbing FlightAware
11:35PM 40.6220 -73.3790 104° East 291 335 7,400 1,920 Climbing FlightAware
11:36PM 40.6140 -73.3330 103° East 297 342 8,300 2,220 Climbing FlightAware
11:36PM 40.6090 -73.3095 106° East 296 341 8,800 2,340 Climbing FlightAware ADS-B
11:36PM 40.6037 -73.2817 104° East 299 344 9,400 2,100 Climbing FlightAware ADS-B
11:36PM 40.5985 -73.2542 104° East 301 346 9,900 1,860 Climbing FlightAware ADS-B
11:37PM 40.5871 -73.1960 104° East 312 359 10,900 1,380 Climbing FlightAware ADS-B
11:37PM 40.5771 -73.1383 103° East 334 384 11,400 900 Climbing FlightAware ADS-B
11:38PM 40.5649 -73.0712 103° East 360 414 11,900 900 Climbing FlightAware ADS-B
11:39PM 40.5531 -73.0050 103° East 383 441 12,400 1,260 Climbing FlightAware ADS-B
11:39PM 40.5403 -72.9338 103° East 398 458 13,200 1,740 Climbing FlightAware ADS-B
11:40PM 40.5274 -72.8603 103° East 408 470 14,200 1,980 Climbing FlightAware ADS-B
11:40PM 40.5137 -72.7832 103° East 415 478 15,300 1,980 Climbing FlightAware ADS-B
11:41PM 40.4993 -72.7046 104° East 423 487 16,300 1,920 Climbing FlightAware ADS-B
11:41PM 40.4864 -72.6284 103° East 428 493 17,300 1,920 Climbing FlightAware ADS-B
11:41PM 40.4780 -72.5814 103° East 433 498 17,900 1,680 Climbing FlightAware ADS-B
11:42PM 40.4761 -72.5644 98° East 438 504 18,000 1,500 Climbing FlightAware ADS-B
11:42PM 40.4782 -72.5182 87° East 445 512 18,500 1,860 Climbing FlightAware ADS-B
11:42PM 40.4897 -72.4699 73° East 454 522 19,100 1,860 Climbing FlightAware ADS-B
11:42PM 40.5018 -72.4441 58° Northeast 459 528 19,400 1,560 Climbing FlightAware ADS-B
11:43PM 40.5590 -72.3500 51° Northeast 467 537 20,600 1,680 Climbing FlightAware
11:43PM 40.5730 -72.3281 50° Northeast 461 531 20,900 1,500 Climbing FlightAware ADS-B
11:44PM 40.6140 -72.2630 50° Northeast 475 547 21,600 1,320 Climbing FlightAware
11:44PM 40.6215 -72.2508 51° Northeast 475 547 21,700 1,500 Climbing FlightAware ADS-B
11:44PM 40.6610 -72.1878 50° Northeast 481 554 22,400 1,380 Climbing FlightAware ADS-B
11:45PM 40.7293 -72.0768 51° Northeast 485 558 23,500 1,380 Climbing FlightAware ADS-B
11:46PM 40.7839 -71.9879 51° Northeast 491 565 24,400 1,320 Climbing FlightAware ADS-B
11:46PM 40.8370 -71.9009 51° Northeast 499 574 25,200 1,320 Climbing FlightAware ADS-B
11:47PM 40.8877 -71.8179 51° Northeast 503 579 26,000 1,320 Climbing FlightAware ADS-B
11:47PM 40.9334 -71.7426 51° Northeast 506 582 26,700 1,140 Climbing FlightAware ADS-B
11:48PM 40.9800 -71.6650 51° Northeast 509 586 27,300 1,200 Climbing FlightAware
11:49PM 41.0360 -71.5730 51° Northeast 508 585 28,200 1,440 Climbing FlightAware
11:49PM 40.8360 -71.9020 231° Southwest 502 578 29,500 1,500 Climbing FlightAware
11:50PM 41.1740 -71.3470 51° Northeast 495 570 30,600 960 Climbing FlightAware
11:51PM 41.2340 -71.2480 51° Northeast 495 570 31,000 240 Climbing FlightAware
11:52PM 41.2980 -71.1420 51° Northeast 492 566 31,000  Level FlightAware
11:52PM 41.3610 -71.0360 52° Northeast 491 565 31,000  Level FlightAware
11:53PM 41.4040 -70.9640 51° Northeast 493 567 31,000  Level FlightAware
11:54PM 41.4600 -70.8690 52° Northeast 494 568 31,000  Level FlightAware
11:54PM 41.5380 -70.7380 51° Northeast 493 567 31,000  Level FlightAware
11:55PM 41.5900 -70.6510 51° Northeast 499 574 31,000  Level FlightAware
11:56PM 41.6650 -70.5230 52° Northeast 497 572 31,000  Level FlightAware
11:57PM 41.7310 -70.4090 52° Northeast 504 580 31,000  Level FlightAware
11:57PM 41.7800 -70.3230 53° Northeast 503 579 31,000  Level FlightAware
11:58PM 41.8730 -70.1600 53° Northeast 503 579 31,000  Level FlightAware
11:59PM 41.9340 -70.0520 53° Northeast 504 580 31,000  Level FlightAware
12:00AM 41.9900 -69.9510 53° Northeast 504 580 31,000  Level FlightAware
12:00AM 42.0490 -69.8470 53° Northeast 505 581 31,000  Level FlightAware
12:01AM 42.1120 -69.7360 53° Northeast 505 581 31,000  Level FlightAware
12:02AM 42.1700 -69.6320 53° Northeast 505 581 31,000  Level FlightAware
12:03AM 42.2260 -69.5310 53° Northeast 505 581 31,000  Level FlightAware
12:03AM 42.2890 -69.4180 53° Northeast 499 574 31,000  Level FlightAware
12:04AM 42.3480 -69.3110 53° Northeast 499 574 31,000  Level FlightAware
12:05AM 42.4060 -69.2060 53° Northeast 500 575 31,000  Level FlightAware
12:05AM 42.4620 -69.1040 53° Northeast 501 577 31,000  Level FlightAware
12:06AM 42.5090 -69.0190 53° Northeast 501 577 31,000  Level FlightAware
12:07AM 42.5660 -68.9150 53° Northeast 500 575 31,000  Level FlightAware
12:07AM 42.6250 -68.8050 54° Northeast 500 575 31,000  Level FlightAware
12:08AM 42.6830 -68.6970 54° Northeast 500 575 31,000  Level FlightAware
12:09AM 42.7290 -68.6100 54° Northeast 500 575 31,000  Level FlightAware
12:10AM 42.8150 -68.4520 53° Northeast 500 575 31,000  Level FlightAware
12:10AM 42.8680 -68.3540 54° Northeast 501 577 31,000  Level FlightAware
12:11AM 42.9310 -68.2350 54° Northeast 500 575 31,000  Level FlightAware
12:12AM 42.9870 -68.1280 54° Northeast 501 577 31,000  Level FlightAware
12:13AM 43.0540 -68.0000 54° Northeast 500 575 31,000  Level FlightAware
12:13AM 43.0990 -67.9120 55° Northeast 500 575 31,000  Level FlightAware
12:14AM 43.1790 -67.7640 53° Northeast 502 578 31,000  Level FlightAware
12:15AM 43.2330 -67.6610 54° Northeast 500 575 31,000  Level FlightAware
12:15AM 43.2940 -67.5450 54° Northeast 500 575 31,000  Level FlightAware
12:16AM 43.3490 -67.4410 54° Northeast 500 575 31,000  Level FlightAware
12:17AM 43.4090 -67.3240 55° Northeast 501 577 31,000  Level FlightAware
12:18AM 43.4630 -67.2170 55° Northeast 496 571 31,000  Level FlightAware
12:18AM 43.5170 -67.1110 55° Northeast 497 572 31,000  Level FlightAware
12:19AM 43.5740 -66.9980 55° Northeast 496 571 31,000  Level FlightAware
12:20AM 43.6290 -66.8930 54° Northeast 499 574 31,000  Level FlightAware
12:20AM 43.6890 -66.7780 54° Northeast 498 573 31,000  Level FlightAware
12:21AM 43.7440 -66.6730 54° Northeast 499 574 31,000  Level FlightAware
12:22AM 43.7970 -66.5700 54° Northeast 500 575 31,000  Level FlightAware
12:22AM 43.8520 -66.4640 54° Northeast 500 575 31,000  Level FlightAware
12:23AM 43.9120 -66.3480 54° Northeast 500 575 31,000  Level FlightAware
12:24AM 43.9720 -66.2310 55° Northeast 498 573 31,000  Level FlightAware
12:25AM 44.0260 -66.1270 54° Northeast 501 577 31,000  Level FlightAware
12:25AM 44.0820 -66.0180 54° Northeast 501 577 31,000  Level FlightAware
12:26AM 44.1610 -65.8610 55° Northeast 502 578 31,000  Level FlightAware
12:27AM 44.2130 -65.7600 54° Northeast 502 578 31,000  Level FlightAware
12:28AM 44.2690 -65.6490 55° Northeast 503 579 31,000  Level FlightAware
12:28AM 44.3430 -65.5030 55° Northeast 503 579 31,000  Level FlightAware
12:30AM 44.4360 -65.3180 55° Northeast 502 578 31,000  Level FlightAware
12:30AM 44.4830 -65.2220 56° Northeast 502 578 31,000  Level FlightAware
12:31AM 44.5460 -65.0960 55° Northeast 498 573 31,000  Level FlightAware
12:32AM 44.6270 -64.9310 55° Northeast 497 572 31,000  Level FlightAware
12:33AM 44.6750 -64.8340 55° Northeast 497 572 31,000  Level FlightAware
12:33AM 44.7330 -64.7160 55° Northeast 495 570 31,000  Level FlightAware
12:34AM 44.7930 -64.5940 55° Northeast 500 575 31,000  Level FlightAware
12:35AM 44.8440 -64.4890 56° Northeast 501 577 31,000  Level FlightAware
12:36AM 44.9050 -64.3630 56° Northeast 501 577 31,000  Level FlightAware
12:36AM 44.9570 -64.2540 56° Northeast 502 578 31,000  Level FlightAware
12:37AM 45.0090 -64.1460 56° Northeast 504 580 31,000  Level FlightAware
12:38AM 45.0770 -64.0040 56° Northeast 505 581 31,000  Level FlightAware
12:39AM 45.1350 -63.8810 56° Northeast 507 583 31,000  Level FlightAware
12:39AM 45.1870 -63.7700 56° Northeast 508 585 31,000  Level FlightAware
12:40AM 45.2450 -63.6460 56° Northeast 510 587 31,000  Level FlightAware
12:41AM 45.2980 -63.5350 56° Northeast 511 588 31,000  Level FlightAware
12:41AM 45.3570 -63.4080 56° Northeast 512 589 31,000  Level FlightAware
12:42AM 45.4100 -63.2960 56° Northeast 511 588 31,000  Level FlightAware
12:43AM 45.4620 -63.1850 56° Northeast 511 588 31,000  Level FlightAware
12:43AM 45.5220 -63.0570 56° Northeast 512 589 31,000  Level FlightAware
12:44AM 45.5770 -62.9410 56° Northeast 513 590 31,000  Level FlightAware
12:45AM 45.6330 -62.8220 56° Northeast 513 590 31,000  Level FlightAware
12:46AM 45.6790 -62.7260 56° Northeast 513 590 31,000  Level FlightAware
12:46AM 45.7240 -62.6300 56° Northeast 513 590 31,000  Level FlightAware
12:47AM 45.7800 -62.5100 56° Northeast 513 590 31,000  Level FlightAware
12:48AM 45.8250 -62.4140 56° Northeast 513 590 31,000  Level FlightAware
12:49AM 45.8700 -62.3180 56° Northeast 513 590 31,000  Level FlightAware
12:49AM 45.9150 -62.2220 56° Northeast 513 590 31,000  Level FlightAware
12:50AM 45.9610 -62.1260 55° Northeast 513 590 31,000  Level FlightAware
12:51AM 46.0940 -61.7960 60° Northeast 523 602 31,000  Level FlightAware
12:51AM 46.1460 -61.6780 58° Northeast 525 604 31,000  Level FlightAware
12:52AM 46.1970 -61.5600 58° Northeast 526 605 31,000  Level FlightAware
12:53AM 46.2540 -61.4280 58° Northeast 529 609 31,000  Level FlightAware
12:53AM 46.3060 -61.3070 58° Northeast 531 611 31,000  Level FlightAware
12:54AM 46.3590 -61.1860 58° Northeast 535 616 31,000  Level FlightAware
12:55AM 46.4190 -61.0460 58° Northeast 538 619 31,000  Level FlightAware
12:56AM 46.4720 -60.9240 58° Northeast 540 621 31,000  Level FlightAware
12:56AM 46.5300 -60.7870 58° Northeast 543 625 31,000  Level FlightAware
12:57AM 46.5840 -60.6620 58° Northeast 546 628 31,000  Level FlightAware
12:58AM 46.6370 -60.5370 58° Northeast 545 627 31,000  Level FlightAware
12:58AM 46.6970 -60.3950 58° Northeast 542 624 31,000  Level FlightAware
12:59AM 46.7470 -60.2760 58° Northeast 540 621 31,000 420 Level FlightAware
01:00AM 46.8090 -60.1300 58° Northeast 535 616 31,600 900 Climbing FlightAware
01:00AM 46.8610 -60.0090 58° Northeast 537 618 32,300 900 Climbing FlightAware
01:01AM 46.9120 -59.8830 59° Northeast 545 627 32,800 660 Climbing FlightAware
01:02AM 46.9690 -59.7430 59° Northeast 550 633 33,300 600 Climbing FlightAware
01:03AM 47.0210 -59.6120 60° Northeast 554 638 33,700 480 Climbing FlightAware
01:03AM 47.0800 -59.4630 60° Northeast 551 634 34,000 180 Climbing FlightAware
01:04AM 47.1280 -59.3410 60° Northeast 548 631 34,000  Level FlightAware
01:05AM 47.1810 -59.2080 60° Northeast 548 631 34,000  Level FlightAware
01:05AM 47.2380 -59.0660 59° Northeast 546 628 34,000  Level FlightAware
01:06AM 47.2850 -58.9490 59° Northeast 546 628 34,000  Level FlightAware
01:07AM 47.3390 -58.8130 60° Northeast 546 628 34,000  Level FlightAware
01:07AM 47.3970 -58.6650 60° Northeast 549 632 34,000  Level FlightAware
01:08AM 47.4460 -58.5410 60° Northeast 551 634 34,000  Level FlightAware
01:09AM 47.5080 -58.3850 59° Northeast 552 635 34,000  Level FlightAware
01:10AM 47.5590 -58.2530 60° Northeast 552 635 34,000  Level FlightAware
01:10AM 47.6110 -58.1210 60° Northeast 553 636 34,000  Level FlightAware
01:11AM 47.6660 -57.9780 60° Northeast 554 638 34,000  Level FlightAware
01:12AM 47.7190 -57.8420 60° Northeast 554 638 34,000  Level FlightAware
01:12AM 47.7760 -57.6940 60° Northeast 554 638 34,000  Level FlightAware
01:13AM 47.8260 -57.5620 61° Northeast 556 640 34,000  Level FlightAware
01:14AM 47.8830 -57.4120 60° Northeast 554 638 34,000  Level FlightAware
01:14AM 47.9340 -57.2780 60° Northeast 555 639 34,000  Level FlightAware
01:15AM 47.9880 -57.1350 61° Northeast 556 640 34,000  Level FlightAware
01:16AM 48.0400 -56.9980 60° Northeast 556 640 34,000  Level FlightAware
01:17AM 48.0910 -56.8610 61° Northeast 558 642 34,000  Level FlightAware
01:17AM 48.1400 -56.7250 62° Northeast 559 643 34,000  Level FlightAware
01:18AM 48.1930 -56.5800 61° Northeast 559 643 34,000  Level FlightAware
01:19AM 48.2470 -56.4190 63° Northeast 560 644 34,000  Level FlightAware
01:19AM 48.2910 -56.2770 65° Northeast 561 646 34,000  Level FlightAware
01:20AM 48.3340 -56.1370 65° Northeast 563 648 34,000  Level FlightAware
01:21AM 48.3820 -55.9810 65° Northeast 564 649 34,000  Level FlightAware
01:21AM 48.4290 -55.8320 65° Northeast 565 650 34,000  Level FlightAware
01:22AM 48.4740 -55.6880 65° Northeast 565 650 34,000  Level FlightAware
01:23AM 48.5240 -55.5280 65° Northeast 565 650 34,000  Level FlightAware
01:24AM 48.5670 -55.3890 65° Northeast 566 651 34,000  Level FlightAware
01:24AM 48.6180 -55.2230 65° Northeast 566 651 34,000  Level FlightAware
01:25AM 48.6620 -55.0790 65° Northeast 564 649 34,000  Level FlightAware
01:26AM 48.7040 -54.9360 66° East 566 651 34,000  Level FlightAware
01:26AM 48.7520 -54.7760 65° Northeast 567 652 34,000  Level FlightAware
01:27AM 48.7960 -54.6270 66° East 568 654 34,000  Level FlightAware
01:28AM 48.8360 -54.4900 66° East 567 652 34,000  Level FlightAware
01:28AM 48.8860 -54.3190 66° East 566 651 34,000  Level FlightAware
01:29AM 48.9270 -54.1750 67° East 564 649 34,000  Level FlightAware
01:30AM 48.9740 -54.0130 66° East 562 647 34,000  Level FlightAware
01:31AM 49.0160 -53.8690 66° East 560 644 34,000  Level FlightAware
01:31AM 49.0580 -53.7200 67° East 559 643 34,000  Level FlightAware
01:32AM 49.1040 -53.5580 67° East 558 642 34,000  Level FlightAware
01:33AM 49.1440 -53.4140 67° East 558 642 34,000  Level FlightAware
01:33AM 49.1890 -53.2500 67° East 557 641 34,000  Level FlightAware
01:34AM 49.2290 -53.1050 67° East 558 642 34,000  Level FlightAware
01:35AM 49.2690 -52.9590 67° East 558 642 34,000  Level FlightAware
01:35AM 49.3120 -52.7990 68° East 558 642 34,000  Level FlightAware
01:36AM 49.3520 -52.6510 67° East 559 643 34,000  Level FlightAware
01:37AM 49.3910 -52.5030 68° East 559 643 34,000  Level FlightAware
01:38AM 49.4310 -52.3530 68° East 558 642 34,000  Level FlightAware
01:38AM 49.4700 -52.2030 68° East 558 642 34,000  Level FlightAware
01:39AM 49.5170 -52.0240 68° East 556 640 34,000  Level FlightAware
01:40AM 49.5540 -51.8800 68° East 556 640 34,000  Level FlightAware
01:40AM 49.5910 -51.7350 68° East 556 640 34,000  Level FlightAware
01:41AM 49.6290 -51.5910 68° East 556 640 34,000  Level FlightAware
01:42AM 49.6620 -51.4660 68° East 556 640 34,000  Level FlightAware
01:42AM 49.6940 -51.3410 68° East 556 640 34,000  Level FlightAware
01:43AM 49.7350 -51.1840 68° East 556 640 34,000  Level FlightAware
01:44AM 49.7680 -51.0590 68° East 556 640 34,000  Level FlightAware
01:45AM 49.8010 -50.9330 68° East 556 640 34,000  Level FlightAware
01:45AM 49.8330 -50.8070 68° East 556 640 34,000  Level FlightAware
01:46AM 49.8660 -50.6820 68° East 556 640 34,000  Level FlightAware
01:47AM 49.8990 -50.5560 68° East 556 640 34,000  Level FlightAware
01:47AM 49.9400 -50.3980 68° East 556 640 34,000  Level FlightAware
01:48AM 49.9730 -50.2720 68° East 556 640 34,000  Level FlightAware
01:49AM 50.0000 -50.0000 77° East 538 619 34,000  Level ETMS Enhanced Traffic Management System
01:49AM 50.0050 -50.1460 68° East 556 640 34,000  Level FlightAware
01:49AM 50.0167 -49.7000 77° East 540 621 34,000  Level Gander Center
01:49AM 50.0380 -50.0200 68° East 556 640 34,000  Level FlightAware
01:50AM 50.0333 -49.6167 73° East 550 633 34,000  Level Gander Center
01:50AM 50.0790 -49.8620 68° East 556 640 34,000  Level FlightAware
01:50AM 50.0500 -49.4833 79° East 550 633 34,000  Level Gander Center
01:51AM 50.0833 -49.2333 78° East 530 610 34,000  Level Gander Center
01:52AM 50.1167 -49.0167 76° East 550 633 34,000  Level Gander Center
01:53AM 50.1500 -48.7667 78° East 540 621 34,000  Level Gander Center
01:54AM 50.1667 -48.5500 83° East 550 633 34,000  Level Gander Center
01:55AM 50.2167 -48.3000 73° East 550 633 34,000  Level Gander Center
01:56AM 50.2167 -48.2500 90° East 540 621 34,000  Level Gander Center
01:56AM 50.2333 -48.0833 81° East 550 633 34,000  Level Gander Center
01:57AM 50.2667 -47.8667 76° East 540 621 34,000  Level Gander Center
02:00AM 50.3226 -47.4251 79° East  Level FlightAware Approximate
02:07AM 50.5067 -45.8588 79° East  Level FlightAware Approximate
02:08AM 50.5312 -45.6340 80° East  Level FlightAware Approximate
02:09AM 50.5554 -45.4091 80° East  Level FlightAware Approximate
02:10AM 50.5791 -45.1839 81° East  Level FlightAware Approximate
02:11AM 50.6024 -44.9585 81° East  Level FlightAware Approximate
02:12AM 50.6252 -44.7328 81° East  Level FlightAware Approximate
02:13AM 50.6476 -44.5070 81° East  Level FlightAware Approximate
02:14AM 50.6696 -44.2809 81° East  Level FlightAware Approximate
02:15AM 50.6911 -44.0546 81° East  Level FlightAware Approximate
02:16AM 50.7122 -43.8281 82° East  Level FlightAware Approximate
02:17AM 50.7328 -43.6014 82° East  Level FlightAware Approximate
02:18AM 50.7530 -43.3745 82° East  Level FlightAware Approximate
02:19AM 50.7728 -43.1475 82° East  Level FlightAware Approximate
02:20AM 50.7921 -42.9202 82° East  Level FlightAware Approximate
02:21AM 50.8110 -42.6927 82° East  Level FlightAware Approximate
02:22AM 50.8294 -42.4651 83° East  Level FlightAware Approximate
02:23AM 50.8474 -42.2373 83° East  Level FlightAware Approximate
02:24AM 50.8650 -42.0093 83° East  Level FlightAware Approximate
02:25AM 50.8821 -41.7811 83° East  Level FlightAware Approximate
02:26AM 50.8988 -41.5528 83° East  Level FlightAware Approximate
02:27AM 50.9150 -41.3243 83° East  Level FlightAware Approximate
02:28AM 50.9308 -41.0957 84° East  Level FlightAware Approximate
02:29AM 50.9461 -40.8669 84° East  Level FlightAware Approximate
02:30AM 50.9610 -40.6379 84° East  Level FlightAware Approximate
02:31AM 50.9754 -40.4088 84° East  Level FlightAware Approximate
02:32AM 50.9894 -40.1796 84° East  Level FlightAware Approximate
02:33AM 51.0021 -39.9502 86° East  Level FlightAware Approximate
02:34AM 51.0116 -39.7202 86° East  Level FlightAware Approximate
02:34AM 51.0000 -40.0000 86° East 526 605 34,000  Level ETMS Enhanced Traffic Management System
02:35AM 51.0207 -39.4902 86° East  Level FlightAware Approximate
02:36AM 51.0291 -39.2652 87° East  Level FlightAware Approximate
02:37AM 51.0371 -39.0402 87° East  Level FlightAware Approximate
02:38AM 51.0447 -38.8150 87° East  Level FlightAware Approximate
02:39AM 51.0518 -38.5898 87° East  Level FlightAware Approximate
02:40AM 51.0647 -38.1425 88° East 526 605 34,000  Level FlightAware Transoceanic
02:41AM 51.0707 -37.9099 88° East 526 605 34,000  Level FlightAware Transoceanic
02:42AM 51.0762 -37.6774 88° East 526 605 34,000  Level FlightAware Transoceanic
02:43AM 51.0813 -37.4447 88° East 526 605 34,000  Level FlightAware Transoceanic
02:44AM 51.0859 -37.2120 88° East 526 605 34,000  Level FlightAware Transoceanic
02:45AM 51.0901 -36.9793 88° East 526 605 34,000  Level FlightAware Transoceanic
02:46AM 51.0938 -36.7465 89° East 526 605 34,000  Level FlightAware Transoceanic
02:47AM 51.0970 -36.5137 89° East 526 605 34,000  Level FlightAware Transoceanic
02:48AM 51.0998 -36.2809 89° East 526 605 34,000  Level FlightAware Transoceanic
02:49AM 51.1021 -36.0480 89° East 526 605 34,000  Level FlightAware Transoceanic
02:50AM 51.1040 -35.8152 89° East 526 605 34,000  Level FlightAware Transoceanic
02:51AM 51.1054 -35.5823 90° East 526 605 34,000  Level FlightAware Transoceanic
02:52AM 51.1063 -35.3494 90° East 526 605 34,000  Level FlightAware Transoceanic
02:53AM 51.1067 -35.1165 90° East 526 605 34,000  Level FlightAware Transoceanic
02:54AM 51.1067 -34.8835 90° East 526 605 34,000  Level FlightAware Transoceanic
02:55AM 51.1063 -34.6506 90° East 526 605 34,000  Level FlightAware Transoceanic
02:56AM 51.1054 -34.4177 90° East 526 605 34,000  Level FlightAware Transoceanic
02:57AM 51.1040 -34.1848 91° East 526 605 34,000  Level FlightAware Transoceanic
02:58AM 51.1021 -33.9520 91° East 526 605 34,000  Level FlightAware Transoceanic
02:59AM 51.0998 -33.7191 91° East 526 605 34,000  Level FlightAware Transoceanic
03:00AM 51.0970 -33.4863 91° East 526 605 34,000  Level FlightAware Transoceanic
03:01AM 51.0938 -33.2535 91° East 526 605 34,000  Level FlightAware Transoceanic
03:02AM 51.0901 -33.0207 92° East 526 605 34,000  Level FlightAware Transoceanic
03:03AM 51.0859 -32.7880 92° East 526 605 34,000  Level FlightAware Transoceanic
03:04AM 51.0813 -32.5553 92° East 526 605 34,000  Level FlightAware Transoceanic
03:05AM 51.0762 -32.3226 92° East 526 605 34,000  Level FlightAware Transoceanic
03:06AM 51.0707 -32.0901 92° East 526 605 34,000  Level FlightAware Transoceanic
03:07AM 51.0647 -31.8575 92° East 526 605 34,000  Level FlightAware Transoceanic
03:08AM 51.0582 -31.6251 93° East 526 605 34,000  Level FlightAware Transoceanic
03:09AM 51.0513 -31.3927 93° East 526 605 34,000  Level FlightAware Transoceanic
03:10AM 51.0439 -31.1604 93° East 526 605 34,000  Level FlightAware Transoceanic
03:11AM 51.0360 -30.9281 93° East 526 605 34,000  Level FlightAware Transoceanic
03:12AM 51.0277 -30.6960 93° East 526 605 34,000  Level FlightAware Transoceanic
03:13AM 51.0189 -30.4639 94° East 526 605 34,000  Level FlightAware Transoceanic
03:14AM 51.0097 -30.2319 94° East 526 605 34,000  Level FlightAware Transoceanic
03:15AM 51.0003 -30.0071 94° East  Level FlightAware Approximate
03:16AM 50.9906 -29.7824 94° East  Level FlightAware Approximate
03:17AM 50.9881 -29.7899 95° East  Level FlightAware Approximate
03:18AM 50.9750 -29.5657 95° East  Level FlightAware Approximate
03:19AM 50.9615 -29.3416 95° East  Level FlightAware Approximate
03:20AM 50.9476 -29.1176 96° East  Level FlightAware Approximate
03:20AM 51.0000 -30.0000 95° East 514 592 34,000  Level ETMS Enhanced Traffic Management System
03:21AM 50.9332 -28.8938 96° East  Level FlightAware Approximate
03:22AM 50.9184 -28.6698 96° East  Level FlightAware Approximate
03:23AM 50.9031 -28.4459 96° East  Level FlightAware Approximate
03:24AM 50.8874 -28.2221 96° East  Level FlightAware Approximate
03:25AM 50.8713 -27.9985 96° East  Level FlightAware Approximate
03:26AM 50.8547 -27.7750 97° East  Level FlightAware Approximate
03:27AM 50.8176 -27.2944 97° East 514 592 34,000  Level FlightAware Transoceanic
03:28AM 50.7996 -27.0699 97° East 514 592 34,000  Level FlightAware Transoceanic
03:29AM 50.7812 -26.8457 97° East 514 592 34,000  Level FlightAware Transoceanic
03:30AM 50.7623 -26.6216 98° East 514 592 34,000  Level FlightAware Transoceanic
03:31AM 50.7430 -26.3976 98° East 514 592 34,000  Level FlightAware Transoceanic
03:32AM 50.7233 -26.1739 98° East 514 592 34,000  Level FlightAware Transoceanic
03:33AM 50.7031 -25.9504 98° East 514 592 34,000  Level FlightAware Transoceanic
03:34AM 50.6826 -25.7271 98° East 514 592 34,000  Level FlightAware Transoceanic
03:35AM 50.6615 -25.5039 99° East 514 592 34,000  Level FlightAware Transoceanic
03:36AM 50.6401 -25.2810 99° East 514 592 34,000  Level FlightAware Transoceanic
03:37AM 50.6183 -25.0582 99° East 514 592 34,000  Level FlightAware Transoceanic
03:38AM 50.5960 -24.8357 99° East 514 592 34,000  Level FlightAware Transoceanic
03:39AM 50.5733 -24.6134 99° East 514 592 34,000  Level FlightAware Transoceanic
03:40AM 50.5501 -24.3913 99° East 514 592 34,000  Level FlightAware Transoceanic
03:41AM 50.5266 -24.1694 100° East 514 592 34,000  Level FlightAware Transoceanic
03:42AM 50.5026 -23.9477 100° East 514 592 34,000  Level FlightAware Transoceanic
03:43AM 50.4782 -23.7263 100° East 514 592 34,000  Level FlightAware Transoceanic
03:44AM 50.4534 -23.5051 100° East 514 592 34,000  Level FlightAware Transoceanic
03:45AM 50.4282 -23.2841 100° East 514 592 34,000  Level FlightAware Transoceanic
03:46AM 50.4025 -23.0634 100° East 514 592 34,000  Level FlightAware Transoceanic
03:47AM 50.3764 -22.8429 101° East 514 592 34,000  Level FlightAware Transoceanic
03:48AM 50.3500 -22.6227 101° East 514 592 34,000  Level FlightAware Transoceanic
03:49AM 50.3231 -22.4027 101° East 514 592 34,000  Level FlightAware Transoceanic
03:50AM 50.2957 -22.1829 101° East 514 592 34,000  Level FlightAware Transoceanic
03:51AM 50.2680 -21.9635 101° East 514 592 34,000  Level FlightAware Transoceanic
03:52AM 50.2399 -21.7442 101° East 514 592 34,000  Level FlightAware Transoceanic
03:53AM 50.2113 -21.5252 102° East 514 592 34,000  Level FlightAware Transoceanic
03:54AM 50.1824 -21.3065 102° East 514 592 34,000  Level FlightAware Transoceanic
03:55AM 50.1530 -21.0881 102° East 514 592 34,000  Level FlightAware Transoceanic
03:56AM 50.1232 -20.8699 102° East 514 592 34,000  Level FlightAware Transoceanic
03:57AM 50.0930 -20.6520 102° East 514 592 34,000  Level FlightAware Transoceanic
03:58AM 50.0624 -20.4344 102° East 514 592 34,000  Level FlightAware Transoceanic
03:59AM 50.0314 -20.2171 103° East 514 592 34,000 -60 Level FlightAware Transoceanic
04:00AM 50.0002 -20.0015 103° East  Level FlightAware Approximate
04:01AM 49.9692 -19.7859 103° East  Level FlightAware Approximate
04:02AM 49.9918 -19.7825 93° East  Level FlightAware Approximate
04:03AM 49.9830 -19.5620 93° East  Level FlightAware Approximate
04:04AM 49.9739 -19.3417 94° East  Level FlightAware Approximate
04:05AM 49.9643 -19.1214 94° East  Level FlightAware Approximate
04:06AM 49.9543 -18.9012 94° East  Level FlightAware Approximate
04:07AM 49.9439 -18.6812 94° East  Level FlightAware Approximate
04:08AM 49.9331 -18.4612 94° East  Level FlightAware Approximate
04:09AM 49.9235 -18.2411 94° East  Level FlightAware Approximate
04:10AM 49.9135 -18.0211 94° East  Level FlightAware Approximate
04:11AM 49.9031 -17.8012 94° East  Level FlightAware Approximate
04:12AM 49.8922 -17.5814 94° East  Level FlightAware Approximate
04:13AM 49.8810 -17.3621 94° East  Level FlightAware Approximate
04:14AM 49.8694 -17.1428 95° East  Level FlightAware Approximate
04:15AM 49.8573 -16.9237 95° East  Level FlightAware Approximate
04:16AM 49.8448 -16.7047 95° East  Level FlightAware Approximate
04:17AM 49.8319 -16.4858 95° East  Level FlightAware Approximate
04:18AM 49.8186 -16.2670 95° East  Level FlightAware Approximate
04:19AM 49.8049 -16.0484 95° East  Level FlightAware Approximate
04:20AM 49.7908 -15.8299 96° East  Level FlightAware Approximate
04:21AM 49.7763 -15.6115 96° East  Level FlightAware Approximate
04:22AM 49.7613 -15.3932 96° East  Level FlightAware Approximate
04:23AM 49.7460 -15.1751 96° East  Level FlightAware Approximate
04:24AM 49.7300 -14.9571 97° East  Level FlightAware Approximate
04:25AM 49.7131 -14.7394 97° East  Level FlightAware Approximate
04:26AM 49.6956 -14.5219 97° East  Level FlightAware Approximate
04:27AM 49.6778 -14.3045 97° East  Level FlightAware Approximate
04:28AM 49.6596 -14.0873 97° East  Level FlightAware Approximate
04:29AM 49.6410 -13.8702 97° East  Level FlightAware Approximate
04:30AM 49.6220 -13.6534 98° East  Level FlightAware Approximate
04:31AM 49.6025 -13.4367 98° East  Level FlightAware Approximate
04:32AM 49.5827 -13.2201 98° East  Level FlightAware Approximate
04:33AM 49.5625 -13.0038 98° East  Level FlightAware Approximate
04:34AM 49.5418 -12.7876 98° East  Level FlightAware Approximate
04:35AM 49.5214 -12.5714 98° East  Level FlightAware Approximate
04:36AM 49.5011 -12.3554 98° East  Level FlightAware Approximate
04:37AM 49.4803 -12.1395 98° East  Level FlightAware Approximate
04:38AM 49.4591 -11.9238 99° East  Level FlightAware Approximate
04:39AM 49.4376 -11.7083 99° East  Level FlightAware Approximate
04:40AM 49.4156 -11.4930 99° East  Level FlightAware Approximate
04:41AM 49.3932 -11.2778 99° East  Level FlightAware Approximate
04:42AM 49.3705 -11.0629 99° East  Level FlightAware Approximate
04:43AM 49.3473 -10.8482 99° East  Level FlightAware Approximate
04:44AM 49.3237 -10.6337 99° East  Level FlightAware Approximate
04:45AM 49.2998 -10.4194 100° East  Level FlightAware Approximate
04:46AM 49.2754 -10.2053 100° East  Level FlightAware Approximate
04:47AM 49.2507 -9.9914 100° East  Level FlightAware Approximate
04:48AM 49.2255 -9.7777 100° East  Level FlightAware Approximate
04:48AM 49.2155 -8.9771 100° East 498 573 33,500  Level FlightAware UK
04:48AM 49.2051 -8.9108 104° East 500 575 33,500  Level FlightAware UK
04:49AM 49.1942 -8.8442 104° East 500 575 33,500  Level FlightAware UK
04:49AM 49.1832 -8.7777 104° East 500 575 33,500  Level FlightAware UK
04:49AM 49.1722 -8.7111 104° East 500 575 33,500  Level FlightAware UK
04:50AM 49.1613 -8.6445 104° East 502 578 33,500 3,600 Level FlightAware UK
04:50AM 49.1720 -8.6070 104° East 540 621 35,000  Climbing FlightAware
04:50AM 49.1465 -8.5557 104° East 504 580 33,500 -2,580 Descending FlightAware UK
04:50AM 49.1352 -8.4892 105° East 504 580 33,500 4,980 Level FlightAware UK
04:50AM 49.1500 -8.4760 105° East 539 620 35,000  Climbing FlightAware
04:51AM 49.1239 -8.4228 105° East 504 580 33,500 -2,520 Descending FlightAware UK
04:51AM 49.1127 -8.3564 105° East 500 575 33,500 2,760 Level FlightAware UK
04:51AM 49.1190 -8.2880 105° East 539 620 35,000  Climbing FlightAware
04:51AM 49.0938 -8.2459 105° East 502 578 33,500 -2,700 Descending FlightAware UK
04:52AM 49.0826 -8.1796 104° East 500 575 33,500 3,720 Level FlightAware UK
04:52AM 49.0940 -8.1450 104° East 539 620 35,000  Climbing FlightAware
04:52AM 49.0678 -8.0913 104° East 496 571 33,500 -2,520 Descending FlightAware UK
04:52AM 49.0565 -8.0251 105° East 496 571 33,500 4,080 Level FlightAware UK
04:52AM 49.0690 -7.9980 105° East 539 620 35,000  Climbing FlightAware
04:53AM 49.0412 -7.9362 105° East 500 575 33,500 -2,400 Descending FlightAware UK
04:53AM 49.0298 -7.8701 105° East 500 575 33,500 3,600 Level FlightAware UK
04:53AM 49.0410 -7.8340 105° East 540 621 35,000  Climbing FlightAware
04:53AM 49.0146 -7.7819 105° East 498 573 33,500 -2,580 Descending FlightAware UK
04:54AM 49.0031 -7.7159 105° East 496 571 33,500 3,900 Level FlightAware UK
04:54AM 49.0150 -7.6860 105° East 540 621 35,000  Climbing FlightAware
04:54AM 48.9879 -7.6277 105° East 494 568 33,500 -2,460 Descending FlightAware UK
04:54AM 48.9763 -7.5616 105° East 494 568 33,500 4,260 Level FlightAware UK
04:54AM 48.9890 -7.5380 105° East 541 623 35,000  Climbing FlightAware
04:55AM 48.9646 -7.4954 105° East 494 568 33,500 -2,760 Descending FlightAware UK
04:55AM 48.9529 -7.4293 105° East 496 571 33,500 3,600 Level FlightAware UK
04:55AM 48.9620 -7.3930 105° East 537 618 35,000  Climbing FlightAware
04:55AM 48.9290 -7.3459 105° East 496 571 33,500 -2,580 Descending FlightAware UK
04:56AM 48.9110 -7.2843 114° Southeast 498 573 33,500 3,900 Level FlightAware UK
04:56AM 48.9220 -7.2590 114° Southeast 531 611 35,000  Climbing FlightAware
04:56AM 48.8850 -7.2040 114° Southeast 496 571 33,500 -2,460 Descending FlightAware UK
04:56AM 48.8649 -7.1443 117° Southeast 498 573 33,500  Level FlightAware UK
04:57AM 48.8446 -7.0844 117° Southeast 496 571 33,500  Level FlightAware UK
04:57AM 48.8244 -7.0247 117° Southeast 498 573 33,500  Level FlightAware UK
04:57AM 48.8043 -6.9646 117° Southeast 498 573 33,500 2,760 Level FlightAware UK
04:58AM 48.8030 -6.9030 117° Southeast 533 613 35,000  Climbing FlightAware
04:58AM 48.7709 -6.8636 117° Southeast 498 573 33,500 -2,700 Descending FlightAware UK
04:58AM 48.7512 -6.8033 116° Southeast 498 573 33,500 4,680 Level FlightAware UK
04:58AM 48.7660 -6.7920 116° Southeast 534 615 35,000  Climbing FlightAware
04:58AM 48.7315 -6.7428 116° Southeast 496 571 33,500 -2,580 Descending FlightAware UK
04:59AM 48.7119 -6.6823 116° Southeast 494 568 33,500 3,180 Level FlightAware UK
04:59AM 48.7180 -6.6460 116° Southeast 536 617 35,000  Climbing FlightAware
04:59AM 48.6790 -6.5816 116° Southeast 494 568 33,500 -2,400 Descending FlightAware UK
05:00AM 48.6590 -6.5212 117° Southeast 494 568 33,500 3,600 Level FlightAware UK
05:00AM 48.6730 -6.5110 117° Southeast 538 619 35,000  Climbing FlightAware
05:00AM 48.6323 -6.4406 117° Southeast 494 568 33,500 -2,580 Descending FlightAware UK
05:00AM 48.6122 -6.3800 117° Southeast 494 568 33,500 4,980 Level FlightAware UK
05:00AM 48.6290 -6.3780 117° Southeast 539 620 35,000  Climbing FlightAware
05:01AM 48.5919 -6.3195 117° Southeast 494 568 33,500 -2,520 Descending FlightAware UK
05:01AM 48.5717 -6.2587 117° Southeast 494 568 33,500 2,760 Level FlightAware UK
05:01AM 48.5720 -6.2100 117° Southeast 541 623 35,000  Climbing FlightAware
05:01AM 48.5376 -6.1577 117° Southeast 494 568 33,500 -2,700 Descending FlightAware UK
05:02AM 48.5171 -6.0972 117° Southeast 494 568 33,500 4,680 Level FlightAware UK
05:02AM 48.5320 -6.0930 117° Southeast 542 624 35,000  Climbing FlightAware
05:02AM 48.4964 -6.0366 117° Southeast 494 568 33,500 -2,580 Descending FlightAware UK
05:02AM 48.4758 -5.9760 117° Southeast 492 566 33,500 2,700 Level FlightAware UK
05:02AM 48.4730 -5.9190 117° Southeast 544 626 35,000  Climbing FlightAware
05:03AM 48.4411 -5.8750 117° Southeast 490 564 33,500 -2,760 Descending FlightAware UK
05:03AM 48.4203 -5.8142 117° Southeast 490 564 33,500 3,600 Level FlightAware UK
05:03AM 48.4260 -5.7850 117° Southeast 547 629 35,000  Climbing FlightAware
05:03AM 48.3922 -5.7325 117° Southeast 490 564 33,500 -2,580 Descending FlightAware UK
05:04AM 48.3713 -5.6719 117° Southeast 490 564 33,500 3,900 Level FlightAware UK
05:04AM 48.3780 -5.6470 117° Southeast 549 632 35,000  Climbing FlightAware
05:04AM 48.3434 -5.5908 117° Southeast 490 564 33,500 -2,460 Descending FlightAware UK
05:04AM 48.3222 -5.5298 117° Southeast 492 566 33,500 3,420 Level FlightAware UK
05:05AM 48.3230 -5.4890 117° Southeast 553 636 35,000  Climbing FlightAware
05:05AM 48.2939 -5.4480 117° Southeast 494 568 33,500 -2,700 Descending FlightAware UK
05:05AM 48.2724 -5.3866 118° Southeast 494 568 33,500 3,720 Level FlightAware UK
05:05AM 48.2750 -5.3510 118° Southeast 555 639 35,000  Climbing FlightAware
05:06AM 48.2439 -5.3043 118° Southeast 498 573 33,500 -2,520 Descending FlightAware UK
05:06AM 48.2222 -5.2427 118° Southeast 498 573 33,500 3,300 Level FlightAware UK
05:06AM 48.2240 -5.2070 118° Southeast 556 640 35,000 1,800 Climbing FlightAware
05:07AM 48.1750 -5.0690 118° Southeast 555 639 35,000  Level FlightAware
05:07AM 48.1270 -4.9340 118° Southeast 554 638 35,000  Level FlightAware
05:08AM 48.0710 -4.7770 118° Southeast 554 638 35,000  Level FlightAware
05:09AM 48.0220 -4.6400 118° Southeast 555 639 35,000  Level FlightAware
05:09AM 47.9740 -4.5080 118° Southeast 555 639 35,000  Level FlightAware
05:10AM 47.9190 -4.3590 119° Southeast 556 640 35,000  Level FlightAware
05:11AM 47.8700 -4.2230 118° Southeast 557 641 35,000  Level FlightAware
05:12AM 47.8140 -4.0710 119° Southeast 558 642 35,000  Level FlightAware
05:12AM 47.7630 -3.9330 119° Southeast 559 643 35,000  Level FlightAware
05:13AM 47.7090 -3.7870 119° Southeast 561 646 35,000  Level FlightAware
05:14AM 47.6570 -3.6470 119° Southeast 563 648 35,000  Level FlightAware
05:14AM 47.6010 -3.4980 119° Southeast 564 649 35,000  Level FlightAware
05:15AM 47.5500 -3.3590 118° Southeast 567 652 35,000  Level FlightAware
05:16AM 47.5000 -3.2260 119° Southeast 568 654 35,000  Level FlightAware
05:16AM 47.4430 -3.0760 119° Southeast 570 656 35,000  Level FlightAware
05:17AM 47.3910 -2.9410 120° Southeast 572 658 35,000  Level FlightAware
05:18AM 47.3390 -2.8040 119° Southeast 573 659 35,000  Level FlightAware
05:19AM 47.2790 -2.6480 120° Southeast 575 662 35,000  Level FlightAware
05:19AM 47.2270 -2.5130 120° Southeast 576 663 35,000  Level FlightAware
05:20AM 47.1680 -2.3620 120° Southeast 577 664 35,000  Level FlightAware
05:21AM 47.1140 -2.2250 120° Southeast 576 663 35,000  Level FlightAware
05:21AM 47.0600 -2.0880 120° Southeast 577 664 35,000  Level FlightAware
05:22AM 47.0000 -1.9360 120° Southeast 576 663 35,000  Level FlightAware
05:23AM 46.9460 -1.8010 120° Southeast 576 663 35,000  Level FlightAware
05:23AM 46.8860 -1.6530 121° Southeast 576 663 35,000  Level FlightAware
05:24AM 46.8320 -1.5190 120° Southeast 576 663 35,000  Level FlightAware
05:25AM 46.7780 -1.3850 120° Southeast 575 662 35,000  Level FlightAware
05:26AM 46.7160 -1.2330 121° Southeast 573 659 35,000  Level FlightAware
05:26AM 46.6620 -1.1020 121° Southeast 573 659 35,000  Level FlightAware
05:27AM 46.6010 -0.9540 121° Southeast 573 659 35,000  Level FlightAware
05:28AM 46.5470 -0.8220 121° Southeast 574 661 35,000  Level FlightAware
05:28AM 46.5050 -0.7170 120° Southeast 574 661 35,000  Level FlightAware
05:29AM 46.4480 -0.5750 120° Southeast 574 661 35,000  Level FlightAware
05:30AM 46.3900 -0.4440 123° Southeast 570 656 35,000  Level FlightAware
05:30AM 46.3270 -0.2930 121° Southeast 568 654 35,000  Level FlightAware
05:31AM 46.2810 -0.1850 122° Southeast 568 654 35,000  Level FlightAware
05:32AM 46.2140 -0.0250 121° Southeast 568 654 35,000  Level FlightAware
05:33AM 46.1640 0.1600 111° Southeast 579 666 35,000  Level FlightAware
05:35AM 46.0912 0.5306 106° East  Level Estimated
05:35AM 46.0750 0.7040 106° East 579 666 35,000  Level FlightAware
05:36AM 46.0540 0.8320 103° East 579 666 35,000  Level FlightAware
05:36AM 46.0340 0.9600 103° East 579 666 35,000  Level FlightAware
05:37AM 46.0130 1.0880 103° East 579 666 35,000  Level FlightAware
05:38AM 45.9880 1.2470 103° East 579 666 35,000  Level FlightAware
05:39AM 45.9670 1.3750 103° East 579 666 35,000  Level FlightAware
05:39AM 45.8560 1.6450 120° Southeast 577 664 35,000  Level FlightAware
05:40AM 45.8170 1.7920 111° Southeast 578 665 35,000  Level FlightAware
05:41AM 45.7780 1.9360 111° Southeast 579 666 35,000  Level FlightAware
05:41AM 45.7350 2.0990 111° Southeast 581 669 35,000  Level FlightAware
05:42AM 45.6960 2.2400 112° Southeast 583 671 35,000  Level FlightAware
05:43AM 45.6540 2.3940 111° Southeast 583 671 35,000  Level FlightAware
05:43AM 45.6110 2.5510 111° Southeast 583 671 35,000  Level FlightAware
05:44AM 45.5750 2.6810 112° Southeast 583 671 35,000  Level FlightAware
05:45AM 45.5270 2.8500 112° Southeast 582 670 35,000  Level FlightAware
05:46AM 45.4880 2.9890 112° Southeast 581 669 35,000  Level FlightAware
05:46AM 45.4420 3.1500 112° Southeast 581 669 35,000  Level FlightAware
05:47AM 45.4020 3.2900 112° Southeast 581 669 35,000 420 Level FlightAware
05:48AM 45.3600 3.4380 112° Southeast 583 671 35,600 1,020 Climbing FlightAware
05:48AM 45.3160 3.5910 112° Southeast 582 670 36,500 960 Climbing FlightAware
05:49AM 45.2760 3.7310 112° Southeast 582 670 37,000 300 Climbing FlightAware
05:50AM 45.2200 3.8940 116° Southeast 582 670 37,000  Level FlightAware
05:50AM 45.1670 4.0190 121° Southeast 580 667 37,000  Level FlightAware
05:51AM 45.1110 4.1510 121° Southeast 579 666 37,000  Level FlightAware
05:52AM 45.0480 4.2970 121° Southeast 578 665 37,000  Level FlightAware
05:53AM 44.9950 4.4210 121° Southeast 578 665 37,000  Level FlightAware
05:53AM 44.9300 4.5720 121° Southeast 577 664 37,000  Level FlightAware
05:54AM 44.8670 4.6930 126° Southeast 575 662 37,000  Level FlightAware
05:55AM 44.7980 4.8090 130° Southeast 575 662 37,000  Level FlightAware
05:55AM 44.7230 4.9360 130° Southeast 575 662 37,000  Level FlightAware
05:56AM 44.6540 5.0510 130° Southeast 575 662 37,000  Level FlightAware
05:57AM 44.5850 5.1650 130° Southeast 576 663 37,000  Level FlightAware
05:57AM 44.5080 5.2920 130° Southeast 575 662 37,000  Level FlightAware
05:58AM 44.4370 5.4070 131° Southeast 576 663 37,000  Level FlightAware
05:59AM 44.3610 5.5300 131° Southeast 576 663 37,000  Level FlightAware
06:00AM 44.2910 5.6430 131° Southeast 575 662 37,000  Level FlightAware
06:00AM 44.2260 5.7530 129° Southeast 576 663 37,000  Level FlightAware
06:01AM 44.1610 5.9010 121° Southeast 574 661 37,000  Level FlightAware
06:02AM 44.1080 6.0360 119° Southeast 573 659 37,000  Level FlightAware
06:02AM 44.0560 6.1680 119° Southeast 573 659 37,000  Level FlightAware
06:03AM 43.9950 6.3180 119° Southeast 573 659 37,000  Level FlightAware
06:04AM 43.9400 6.4510 120° Southeast 573 659 37,000  Level FlightAware
06:04AM 43.8870 6.5780 120° Southeast 572 658 37,000  Level FlightAware
06:05AM 43.8300 6.7170 120° Southeast 574 661 37,000  Level FlightAware
06:06AM 43.7760 6.8460 120° Southeast 574 661 37,000  Level FlightAware
06:07AM 43.7180 6.9830 120° Southeast 574 661 37,000  Level FlightAware
06:07AM 43.6610 7.1160 121° Southeast 574 661 37,000  Level FlightAware
06:08AM 43.6090 7.2340 121° Southeast 574 661 37,000  Level FlightAware
06:09AM 43.5450 7.3780 121° Southeast 575 662 37,000  Level FlightAware
06:09AM 43.4920 7.4990 121° Southeast 574 661 37,000  Level FlightAware
06:10AM 43.4260 7.6490 121° Southeast 574 661 37,000  Level FlightAware
06:11AM 43.3710 7.7740 121° Southeast 573 659 37,000  Level FlightAware
06:11AM 43.3160 7.8960 122° Southeast 573 659 37,000  Level FlightAware
06:12AM 43.2540 8.0360 121° Southeast 574 661 37,000  Level FlightAware
06:13AM 43.1980 8.1580 122° Southeast 574 661 37,000  Level FlightAware
06:14AM 43.1350 8.2980 122° Southeast 575 662 37,000  Level FlightAware
06:14AM 43.0780 8.4220 122° Southeast 575 662 37,000  Level FlightAware
06:15AM 43.0210 8.5460 122° Southeast 576 663 37,000  Level FlightAware
06:16AM 42.9630 8.6720 122° Southeast 575 662 37,000  Level FlightAware
06:16AM 42.9080 8.7890 123° Southeast 574 661 37,000  Level FlightAware
06:17AM 42.8550 8.9050 122° Southeast 574 661 37,000  Level FlightAware
06:18AM 42.7860 9.0520 123° Southeast 572 658 37,000  Level FlightAware
06:18AM 42.7290 9.1730 123° Southeast 569 655 37,000  Level FlightAware
06:19AM 42.6650 9.3080 123° Southeast 566 651 37,000  Level FlightAware
06:20AM 42.6090 9.4280 122° Southeast 558 642 37,000  Level FlightAware
06:21AM 42.5640 9.5440 118° Southeast 551 634 37,000  Level FlightAware
06:21AM 42.5210 9.6990 111° Southeast 548 631 37,000  Level FlightAware
06:22AM 42.4870 9.8280 110° East 547 629 37,000  Level FlightAware
06:23AM 42.4480 9.9720 110° East 547 629 37,000  Level FlightAware
06:23AM 42.4130 10.1030 110° East 547 629 37,000  Level FlightAware
06:24AM 42.3730 10.2480 110° East 545 627 37,000  Level FlightAware
06:25AM 42.3380 10.3750 110° East 543 625 37,000  Level FlightAware
06:25AM 42.3030 10.5040 110° East 540 621 37,000  Level FlightAware
06:26AM 42.2640 10.6450 110° East 537 618 37,000  Level FlightAware
06:27AM 42.2290 10.7710 111° Southeast 535 616 37,000  Level FlightAware
06:28AM 42.1930 10.8960 111° Southeast 532 612 37,000  Level FlightAware
06:30AM 42.0781 11.2364 114° Southeast  Level FlightAware Approximate
06:31AM 42.0193 11.4090 115° Southeast  Level FlightAware Approximate
06:32AM 41.9204 11.5520 134° Southeast  Level FlightAware Approximate
06:33AM 41.8228 11.6887 134° Southeast  Level FlightAware Approximate
06:34AM 41.7250 11.8250 134° Southeast  Level FlightAware Approximate
06:35AM 41.6271 11.9609 134° Southeast  Level FlightAware Approximate
06:36AM 41.5290 12.0963 134° Southeast  Level FlightAware Approximate
06:37AM 41.4307 12.2313 134° Southeast  Level FlightAware Approximate
06:37AM 41.3830 12.4030 134° Southeast 555 639 37,000  Level FlightAware
06:38AM 41.3070 12.4930 138° Southeast 556 640 37,000  Level FlightAware
06:38AM 41.2320 12.5820 138° Southeast 557 641 37,000  Level FlightAware
06:39AM 41.1440 12.6850 139° Southeast 555 639 37,000  Level FlightAware
06:40AM 41.0760 12.7850 132° Southeast 546 628 37,000  Level FlightAware
06:40AM 41.0150 12.9130 122° Southeast 545 627 37,000  Level FlightAware
06:41AM 40.9610 13.0250 123° Southeast 544 626 37,000  Level FlightAware
06:42AM 40.8930 13.1780 120° Southeast 544 626 37,000  Level FlightAware
06:43AM 40.8350 13.3040 121° Southeast 542 624 37,000  Level FlightAware
06:43AM 40.7840 13.4150 121° Southeast 543 625 37,000  Level FlightAware
06:44AM 40.7230 13.5460 122° Southeast 542 624 37,000  Level FlightAware
06:45AM 40.6680 13.6660 121° Southeast 540 621 37,000  Level FlightAware
06:46AM 40.6140 13.7800 122° Southeast 538 619 37,000  Level FlightAware
06:46AM 40.5560 13.9050 121° Southeast 536 617 37,000  Level FlightAware
06:47AM 40.5070 14.0100 122° Southeast 536 617 37,000  Level FlightAware
06:48AM 40.4460 14.1400 122° Southeast 535 616 37,000  Level FlightAware
06:48AM 40.3940 14.2510 122° Southeast 532 612 37,000  Level FlightAware
06:49AM 40.3410 14.3610 122° Southeast 531 611 37,000  Level FlightAware
06:50AM 40.2820 14.4870 122° Southeast 528 608 37,000  Level FlightAware
06:50AM 40.2310 14.5930 122° Southeast 528 608 37,000  Level FlightAware
06:51AM 40.1780 14.7040 122° Southeast 527 606 37,000  Level FlightAware
06:52AM 40.1220 14.8190 122° Southeast 527 606 37,000  Level FlightAware
06:53AM 40.0680 14.9310 122° Southeast 528 608 37,000  Level FlightAware
06:53AM 40.0090 15.0520 122° Southeast 527 606 37,000  Level FlightAware
06:54AM 39.9570 15.1600 122° Southeast 526 605 37,000  Level FlightAware
06:55AM 39.9050 15.2680 122° Southeast 526 605 37,000  Level FlightAware
06:55AM 39.8470 15.3850 123° Southeast 525 604 37,000  Level FlightAware
06:56AM 39.7960 15.4910 122° Southeast 523 602 37,000  Level FlightAware
06:57AM 39.7370 15.6120 122° Southeast 519 597 37,000  Level FlightAware
06:57AM 39.6980 15.7240 114° Southeast 517 595 37,000  Level FlightAware
06:58AM 39.6670 15.8140 114° Southeast 517 595 37,000  Level FlightAware
06:59AM 39.6130 15.9660 115° Southeast 520 598 37,000  Level FlightAware
07:00AM 39.5720 16.0800 115° Southeast 520 598 37,000  Level FlightAware
07:00AM 39.5280 16.2060 114° Southeast 520 598 37,000  Level FlightAware
07:01AM 39.4900 16.3190 114° Southeast 519 597 37,000  Level FlightAware
07:02AM 39.4500 16.4320 115° Southeast 517 595 37,000  Level FlightAware
07:02AM 39.4060 16.5580 114° Southeast 516 594 37,000  Level FlightAware
07:03AM 39.3660 16.6730 114° Southeast 514 592 37,000  Level FlightAware
07:04AM 39.3220 16.7980 114° Southeast 512 589 37,000  Level FlightAware
07:04AM 39.2830 16.9100 114° Southeast 511 588 37,000  Level FlightAware
07:05AM 39.2360 17.0430 114° Southeast 510 587 37,000  Level FlightAware
07:06AM 39.1930 17.1660 114° Southeast 510 587 37,000  Level FlightAware
07:07AM 39.1590 17.2610 115° Southeast 511 588 37,000  Level FlightAware
07:07AM 39.1210 17.3670 115° Southeast 511 588 37,000  Level FlightAware
07:08AM 39.0730 17.5030 114° Southeast 509 586 37,000  Level FlightAware
07:09AM 39.0330 17.6150 115° Southeast 509 586 37,000  Level FlightAware
07:10AM 38.9830 17.7540 115° Southeast 510 587 37,000  Level FlightAware
07:11AM 38.9370 17.8820 115° Southeast 508 585 37,000  Level FlightAware
07:11AM 38.8960 17.9930 115° Southeast 507 583 37,000  Level FlightAware
07:12AM 38.8580 18.0980 115° Southeast 507 583 37,000  Level FlightAware
07:13AM 38.8080 18.2350 115° Southeast 507 583 37,000  Level FlightAware
07:13AM 38.7700 18.3380 115° Southeast 507 583 37,000  Level FlightAware
07:14AM 38.7190 18.4770 115° Southeast 508 585 37,000  Level FlightAware
07:15AM 38.6810 18.5790 115° Southeast 508 585 37,000  Level FlightAware
07:15AM 38.6400 18.6870 116° Southeast 508 585 37,000  Level FlightAware
07:16AM 38.6000 18.7960 115° Southeast 508 585 37,000  Level FlightAware
07:17AM 38.5630 18.8940 116° Southeast 509 586 37,000  Level FlightAware
07:18AM 38.5190 19.0130 115° Southeast 509 586 37,000  Level FlightAware
07:18AM 38.4850 19.1060 115° Southeast 509 586 37,000  Level FlightAware
07:19AM 38.4540 19.2600 104° East 508 585 37,000  Level FlightAware
07:20AM 38.4250 19.3710 108° East 507 583 37,000  Level FlightAware
07:20AM 38.3950 19.4820 109° East 507 583 37,000  Level FlightAware
07:21AM 38.3640 19.5970 109° East 505 581 37,000  Level FlightAware
07:22AM 38.3290 19.7250 109° East 504 580 37,000  Level FlightAware
07:22AM 38.3000 19.8320 109° East 504 580 37,000  Level FlightAware
07:23AM 38.2690 19.9480 109° East 504 580 37,000  Level FlightAware
07:24AM 38.2080 20.1750 109° East 502 578 37,000  Level FlightAware
07:25AM 38.1820 20.2700 109° East 502 578 37,000  Level FlightAware
07:26AM 38.1560 20.3650 109° East 502 578 37,000  Level FlightAware
07:26AM 38.1310 20.4600 108° East 502 578 37,000  Level FlightAware
07:27AM 38.1050 20.5540 109° East 502 578 37,000  Level FlightAware
07:28AM 38.0730 20.6730 109° East 502 578 37,000  Level FlightAware
07:28AM 38.0470 20.7680 109° East 502 578 37,000  Level FlightAware
07:29AM 38.0210 20.8630 109° East 502 578 37,000  Level FlightAware
07:30AM 37.9960 20.9570 109° East 502 578 37,000  Level FlightAware
07:30AM 37.9700 21.0520 109° East 502 578 37,000  Level FlightAware
07:31AM 37.9380 21.1700 109° East 502 578 37,000  Level FlightAware
07:32AM 37.9120 21.2650 109° East 502 578 37,000  Level FlightAware
07:33AM 37.8860 21.3600 109° East 502 578 37,000  Level FlightAware
07:33AM 37.8610 21.4540 109° East 502 578 37,000  Level FlightAware
07:36AM 37.7312 21.8162 114° Southeast  Level FlightAware Approximate
07:37AM 37.6723 21.9791 115° Southeast  Level FlightAware Approximate
07:38AM 37.6132 22.1418 115° Southeast  Level FlightAware Approximate
07:39AM 37.5538 22.3043 115° Southeast  Level FlightAware Approximate
07:40AM 37.4943 22.4665 115° Southeast  Level FlightAware Approximate
07:41AM 37.4345 22.6284 115° Southeast  Level FlightAware Approximate
07:42AM 37.3745 22.7901 115° Southeast  Level FlightAware Approximate
07:43AM 37.3143 22.9515 115° Southeast  Level FlightAware Approximate
07:44AM 37.2538 23.1127 115° Southeast  Level FlightAware Approximate
07:45AM 37.1931 23.2736 115° Southeast  Level FlightAware Approximate
07:46AM 37.1322 23.4342 115° Southeast  Level FlightAware Approximate
07:47AM 37.0711 23.5946 115° Southeast  Level FlightAware Approximate
07:48AM 37.0098 23.7547 116° Southeast  Level FlightAware Approximate
07:49AM 36.9483 23.9146 116° Southeast  Level FlightAware Approximate
07:50AM 36.8865 24.0742 116° Southeast  Level FlightAware Approximate
07:51AM 36.8246 24.2335 116° Southeast  Level FlightAware Approximate
07:52AM 36.7624 24.3926 116° Southeast  Level FlightAware Approximate
07:53AM 36.6998 24.5565 115° Southeast  Level FlightAware Approximate
07:54AM 36.6399 24.7167 115° Southeast  Level FlightAware Approximate
07:55AM 36.5798 24.8766 115° Southeast  Level FlightAware Approximate
07:56AM 36.5194 25.0363 115° Southeast  Level FlightAware Approximate
07:57AM 36.4588 25.1957 115° Southeast  Level FlightAware Approximate
07:58AM 36.3980 25.3549 115° Southeast  Level FlightAware Approximate
07:59AM 36.3370 25.5138 115° Southeast  Level FlightAware Approximate
08:00AM 36.2750 25.6719 116° Southeast  Level FlightAware Approximate
08:01AM 36.2124 25.8296 116° Southeast  Level FlightAware Approximate
08:02AM 36.1495 25.9870 116° Southeast  Level FlightAware Approximate
08:03AM 36.0864 26.1442 116° Southeast  Level FlightAware Approximate
08:04AM 36.0232 26.3011 116° Southeast  Level FlightAware Approximate
08:05AM 35.9597 26.4578 117° Southeast  Level FlightAware Approximate
08:06AM 35.8960 26.6142 117° Southeast  Level FlightAware Approximate
08:06AM 35.9150 26.6020 117° Southeast 473 544 37,000  Level FlightAware
08:07AM 35.8321 26.7703 117° Southeast  Level FlightAware Approximate
08:07AM 35.8710 26.7150 116° Southeast 472 543 37,000  Level FlightAware
08:07AM 35.8340 26.8120 115° Southeast 473 544 37,000  Level FlightAware
08:08AM 35.7930 26.9190 115° Southeast 475 547 37,000  Level FlightAware
08:09AM 35.7570 27.0140 115° Southeast 476 548 37,000  Level FlightAware
08:10AM 35.7250 27.0980 115° Southeast 476 548 37,000  Level FlightAware
08:10AM 35.6930 27.1810 115° Southeast 476 548 37,000  Level FlightAware
08:11AM 35.6620 27.2650 114° Southeast 476 548 37,000  Level FlightAware
08:12AM 35.6300 27.3480 115° Southeast 476 548 37,000  Level FlightAware
08:12AM 35.5900 27.4520 115° Southeast 476 548 37,000  Level FlightAware
08:13AM 35.5590 27.5360 114° Southeast 476 548 37,000  Level FlightAware
08:14AM 35.5270 27.6190 115° Southeast 476 548 37,000  Level FlightAware
08:14AM 35.4960 27.7030 114° Southeast 476 548 37,000  Level FlightAware
08:15AM 35.4640 27.7860 115° Southeast 476 548 37,000  Level FlightAware
08:16AM 35.3340 28.1050 116° Southeast 493 567 37,000  Level FlightAware
08:17AM 35.2880 28.2200 116° Southeast 493 567 37,000  Level FlightAware
08:17AM 35.2490 28.3190 116° Southeast 492 566 37,000  Level FlightAware
08:18AM 35.2040 28.4300 116° Southeast 492 566 37,000  Level FlightAware
08:19AM 35.1640 28.5300 116° Southeast 493 567 37,000  Level FlightAware
08:19AM 35.1310 28.6130 116° Southeast 493 567 37,000  Level FlightAware
08:20AM 35.0810 28.7400 116° Southeast 489 563 37,000  Level FlightAware
08:21AM 35.0250 28.8790 116° Southeast 492 566 37,000  Level FlightAware
08:22AM 34.9840 28.9800 116° Southeast 491 565 37,000  Level FlightAware
08:23AM 34.9380 29.0950 116° Southeast 494 568 37,000  Level FlightAware
08:23AM 34.8920 29.2120 116° Southeast 495 570 37,000  Level FlightAware
08:24AM 34.8590 29.2980 115° Southeast 495 570 37,000  Level FlightAware
08:25AM 34.8060 29.4260 117° Southeast 491 565 37,000  Level FlightAware
08:26AM 34.7450 29.5720 117° Southeast 489 563 37,000  Level FlightAware
08:27AM 34.7030 29.6730 117° Southeast 487 560 37,000  Level FlightAware
08:27AM 34.6620 29.7740 116° Southeast 484 557 37,000  Level FlightAware
08:28AM 34.6110 29.9010 116° Southeast 484 557 37,000  Level FlightAware
08:29AM 34.5790 29.9850 115° Southeast 484 557 37,000  Level FlightAware
08:29AM 34.5210 30.0790 127° Southeast 37,000  Level FlightAware
08:31AM 34.4060 30.3220 120° Southeast 486 559 37,000  Level FlightAware
08:32AM 34.3490 30.4440 119° Southeast 487 560 37,000  Level FlightAware
08:33AM 34.2990 30.5470 120° Southeast 486 559 37,000  Level FlightAware
08:33AM 34.2510 30.6460 120° Southeast 486 559 37,000  Level FlightAware
08:34AM 34.2000 30.7510 120° Southeast 487 560 37,000  Level FlightAware
08:35AM 34.1540 30.8460 120° Southeast 487 560 37,000  Level FlightAware
08:36AM 34.0990 30.9640 119° Southeast 489 563 37,000  Level FlightAware
08:36AM 34.0370 31.0880 121° Southeast 492 566 37,000  Level FlightAware
08:37AM 33.9930 31.1800 120° Southeast 492 566 37,000  Level FlightAware
08:38AM 33.9470 31.2750 120° Southeast 493 567 37,000  Level FlightAware
08:39AM 33.8920 31.3890 120° Southeast 492 566 37,000  Level FlightAware
08:39AM 33.8540 31.4680 120° Southeast 493 567 37,000  Level FlightAware
08:40AM 33.8010 31.5770 120° Southeast 493 567 37,000  Level FlightAware
08:41AM 33.7470 31.6860 121° Southeast 493 567 37,000  Level FlightAware
08:41AM 33.7000 31.7830 120° Southeast 493 567 37,000  Level FlightAware
08:42AM 33.6490 31.8870 120° Southeast 495 570 37,000  Level FlightAware
08:43AM 33.6030 31.9810 120° Southeast 496 571 37,000  Level FlightAware
08:44AM 33.4890 32.2140 120° Southeast 496 571 37,000  Level FlightAware
08:45AM 33.4410 32.3110 121° Southeast 502 578 37,000  Level FlightAware
08:46AM 33.4010 32.3920 121° Southeast 503 579 37,000  Level FlightAware
08:47AM 33.3190 32.5520 121° Southeast 508 585 37,000  Level FlightAware
08:47AM 33.2690 32.6520 121° Southeast 510 587 37,000  Level FlightAware
08:48AM 33.2200 32.7480 121° Southeast 511 588 37,000  Level FlightAware
08:49AM 33.1630 32.8600 121° Southeast 513 590 37,000  Level FlightAware
08:49AM 33.1150 32.9530 122° Southeast 513 590 37,000  Level FlightAware
08:50AM 33.0600 33.0620 121° Southeast 515 593 37,000 -180 Level FlightAware
08:51AM 33.0070 33.1650 122° Southeast 510 587 36,800 -840 Descending FlightAware
08:52AM 32.9500 33.2770 121° Southeast 507 583 35,800 -3,060 Descending FlightAware
08:52AM 32.8950 33.3820 122° Southeast 513 590 32,000 -4,380 Descending FlightAware
08:53AM 32.8340 33.4990 122° Southeast 492 566 29,300 -3,780 Descending FlightAware
08:54AM 32.7890 33.5860 122° Southeast 477 549 26,700 -4,080 Descending FlightAware
08:55AM 32.7410 33.6770 122° Southeast 465 535 23,900 -4,200 Descending FlightAware
08:55AM 32.6920 33.7720 121° Southeast 455 524 20,800 -4,200 Descending FlightAware
08:56AM 32.6480 33.8540 122° Southeast 438 504 18,000 -4,140 Descending FlightAware
08:57AM 32.6080 33.9320 121° Southeast 420 483 15,300 -3,660 Descending FlightAware
08:58AM 32.5490 34.0460 122° Southeast 406 467 11,900 -2,700 Descending FlightAware
08:58AM 32.5100 34.1200 122° Southeast 379 436 10,800 -1,860 Descending FlightAware
08:59AM 32.4840 34.1650 124° Southeast 369 425 9,900 -1,920 Descending FlightAware
08:59AM 32.4430 34.2170 133° Southeast 352 405 8,900 -1,560 Descending FlightAware
09:00AM 32.4230 34.2420 133° Southeast 341 392 8,500 -660 Descending FlightAware
09:00AM 32.3860 34.2840 136° Southeast 335 386 8,300 -240 Descending FlightAware
09:01AM 32.3680 34.3060 134° Southeast 335 386 8,300  Level FlightAware
09:01AM 32.3490 34.3280 136° Southeast 335 386 8,300 -2,400 Level FlightAware
09:01AM 32.3160 34.3670 135° Southeast 277 319 6,300 -2,760 Descending FlightAware
09:02AM 32.2940 34.3930 135° Southeast 275 316 5,800 -1,200 Descending FlightAware
09:02AM 32.2640 34.4270 136° Southeast 275 316 5,200 -1,080 Descending FlightAware
09:02AM 32.2580 34.4340 135° Southeast 276 318 5,100 -120 Descending FlightAware
09:03AM 32.2220 34.4760 135° Southeast 274 315 5,100  Level FlightAware
09:06AM 32.0360 34.8067 125° Southeast  Level FlightAware Approximate
09:07AM 32.0000 34.8667 125° Southeast  Level FlightAware Approximate
09:08AM 32.0095 34.8769 125° Southeast  Level Estimated
09:09AM 32.0095 34.8769 125° Southeast  Level Estimated
09:10AM 32.0095 34.8769 125° Southeast  Level Estimated
09:11AM 32.0095 34.8769 125° Southeast  Level Estimated
09:12AM 32.0095 34.8769 125° Southeast  Level Estimated
09:13AM 32.0095 34.8769 125° Southeast  Level Estimated
09:14AM 32.0095 34.8769 125° Southeast  Level Estimated
09:15AM 32.0095 34.8769 125° Southeast  Level Estimated